Time;durP1;ratioP1;P1;durP2;ratioP2;P2;SDS_P1;SDS_P2;PMS_P1;PMS_P2;Temp;Humidity;BMP_temperature;BMP_pressure;BME280_temperature;BME280_humidity;BME280_pressure;Samples;Min_cycle;Max_cycle;Signal;HPM_P1;HPM_P2
2022/05/10 00:03:08;;;;;;;7.30;5.03;;;;;;;18.79;58.06;100704.78;10374802;28;20071;-62
2022/05/10 00:08:12;;;;;;;5.93;5.32;;;;;;;18.42;58.75;100669.19;10378066;28;20103;-62
2022/05/10 00:13:14;;;;;;;6.20;5.57;;;;;;;18.58;57.12;100703.41;10382299;28;20044;-63
2022/05/10 00:18:17;;;;;;;6.30;5.72;;;;;;;18.47;58.16;100698.34;10377311;28;20100;-60
2022/05/10 00:23:19;;;;;;;5.30;4.80;;;;;;;18.42;57.48;100700.66;10371497;28;20057;-61
2022/05/10 00:28:20;;;;;;;5.15;4.75;;;;;;;18.25;57.47;100668.28;10368587;28;20200;-61
2022/05/10 00:33:26;;;;;;;5.95;5.28;;;;;;;18.31;57.83;100689.16;10368209;28;20566;-62
2022/05/10 00:38:36;;;;;;;4.93;4.50;;;;;;;18.25;57.69;100692.53;10368607;28;20049;-60
2022/05/10 00:43:43;;;;;;;5.50;4.97;;;;;;;18.19;57.63;100679.72;10365815;28;20170;-61
2022/05/10 00:49:00;;;;;;;6.90;5.60;;;;;;;18.17;57.99;100682.56;10367903;28;20045;-60
2022/05/10 00:54:28;;;;;;;5.80;5.20;;;;;;;18.08;58.06;100690.78;10366352;28;20049;-61
2022/05/10 00:59:44;;;;;;;5.85;5.35;;;;;;;17.94;58.38;100685.00;10336984;28;20191;-61
2022/05/10 01:04:50;;;;;;;6.70;5.22;;;;;;;17.93;58.90;100682.47;10374105;28;20155;-63
2022/05/10 01:09:55;;;;;;;6.22;5.60;;;;;;;17.77;59.18;100665.19;10376028;28;20046;-62
2022/05/10 01:15:02;;;;;;;5.80;5.25;;;;;;;17.83;59.30;100674.47;10376982;28;20041;-62
2022/05/10 01:20:06;;;;;;;9.70;6.32;;;;;;;17.64;59.91;100651.34;10372345;28;20516;-63
2022/05/10 01:25:36;;;;;;;6.25;5.70;;;;;;;17.72;59.66;100672.06;10372978;28;20209;-66
2022/05/10 01:30:37;;;;;;;7.25;5.32;;;;;;;17.64;60.31;100665.63;10367038;28;20049;-62
2022/05/10 01:35:44;;;;;;;5.85;5.28;;;;;;;17.34;60.07;100621.22;10371423;28;20057;-62
2022/05/10 01:40:48;;;;;;;7.07;6.30;;;;;;;17.46;60.34;100651.41;10386201;28;20142;-62
2022/05/10 01:45:57;;;;;;;6.47;5.70;;;;;;;17.41;60.39;100653.72;10374200;28;20130;-61
2022/05/10 01:51:17;;;;;;;6.47;5.97;;;;;;;17.36;60.18;100656.88;10380488;28;20053;-64
2022/05/10 01:56:23;;;;;;;6.18;5.68;;;;;;;17.28;60.68;100656.84;10371482;28;20053;-63
2022/05/10 02:01:31;;;;;;;6.85;6.13;;;;;;;17.23;61.15;100648.38;10373493;28;20163;-61
2022/05/10 02:06:55;;;;;;;6.40;5.90;;;;;;;17.14;61.51;100642.94;10371788;28;20298;-62
2022/05/10 02:12:12;;;;;;;7.53;6.33;;;;;;;17.04;60.97;100634.13;10375540;28;20045;-60
2022/05/10 02:17:19;;;;;;;9.73;6.75;;;;;;;17.04;61.59;100641.34;10373323;28;20061;-61
2022/05/10 02:22:32;;;;;;;7.93;6.82;;;;;;;16.96;61.86;100634.91;10372806;28;20234;-61
2022/05/10 02:27:42;;;;;;;6.90;6.22;;;;;;;16.89;62.02;100639.22;10373839;28;20601;-62
2022/05/10 02:33:06;;;;;;;6.68;6.07;;;;;;;16.81;62.01;100622.97;10373526;28;20160;-62
2022/05/10 02:38:10;;;;;;;6.18;5.68;;;;;;;16.77;61.85;100621.63;10372519;28;20567;-62
2022/05/10 02:43:13;;;;;;;;;;;;;;;16.76;61.94;100625.28;10373423;28;20041;-61
2022/05/10 02:48:26;;;;;;;7.03;6.30;;;;;;;16.72;61.37;100623.91;10372026;28;20031;-62
2022/05/10 02:53:28;;;;;;;6.70;6.10;;;;;;;16.56;62.50;100603.97;10374918;28;20045;-63
2022/05/10 02:58:38;;;;;;;7.43;5.88;;;;;;;16.70;62.15;100628.59;10373995;28;20045;-62
2022/05/10 03:03:40;;;;;;;6.50;5.90;;;;;;;16.65;61.75;100623.69;10373215;28;20061;-61
2022/05/10 03:08:42;;;;;;;6.75;6.15;;;;;;;16.64;62.27;100623.84;10373888;28;20041;-64
2022/05/10 03:13:44;;;;;;;7.15;5.72;;;;;;;16.61;62.03;100620.44;10372570;28;20057;-61
2022/05/10 03:18:52;;;;;;;6.30;5.70;;;;;;;16.58;62.14;100618.06;10371265;28;20224;-62
2022/05/10 03:23:53;;;;;;;6.10;5.70;;;;;;;16.58;61.71;100622.63;10372884;28;20055;-62
2022/05/10 03:28:55;;;;;;;7.35;6.10;;;;;;;16.56;61.86;100617.41;10370336;28;20587;-62
2022/05/10 03:39:17;;;;;;;6.45;5.95;;;;;;;16.41;61.98;100592.06;10373199;28;20049;-61
2022/05/10 03:44:19;;;;;;;6.30;5.80;;;;;;;16.52;61.75;100615.16;10372027;28;20053;-62
2022/05/10 03:49:20;;;;;;;7.60;6.68;;;;;;;16.45;61.98;100609.53;10374977;28;20067;-60
2022/05/10 03:54:24;;;;;;;6.47;5.80;;;;;;;16.36;62.08;100595.22;10376902;28;20057;-61
2022/05/10 03:59:26;;;;;;;6.38;5.78;;;;;;;16.44;61.48;100607.88;10381404;28;20133;-62
2022/05/10 04:04:27;;;;;;;6.95;6.22;;;;;;;16.45;62.27;100609.53;10384551;28;20072;-64
2022/05/10 04:09:28;;;;;;;7.25;6.53;;;;;;;16.43;62.08;100608.88;10388347;28;20156;-62
2022/05/10 04:14:30;;;;;;;6.47;5.97;;;;;;;16.40;62.21;100611.88;10379350;28;20076;-62
2022/05/10 04:19:32;;;;;;;6.70;6.13;;;;;;;16.31;62.43;100596.66;10372471;28;20144;-62
2022/05/10 04:24:34;;;;;;;5.90;5.40;;;;;;;16.28;61.88;100592.44;10372247;28;20152;-62
2022/05/10 04:29:35;;;;;;;6.82;6.28;;;;;;;16.32;61.64;100609.06;10370130;28;20060;-62
2022/05/10 04:34:36;;;;;;;7.57;6.80;;;;;;;16.37;62.32;100612.16;10371203;28;20190;-62
2022/05/10 04:44:59;;;;;;;6.72;6.13;;;;;;;16.38;62.16;100625.44;10377834;28;20418;-62
2022/05/10 04:50:01;;;;;;;10.33;5.87;;;;;;;16.30;62.14;100603.84;10393923;28;20400;-64
2022/05/10 04:55:03;;;;;;;8.02;6.60;;;;;;;16.23;62.43;100594.75;10377800;28;20057;-61
2022/05/10 05:00:07;;;;;;;7.38;6.68;;;;;;;16.35;63.38;100635.63;10378868;28;20061;-62
2022/05/10 05:05:11;;;;;;;6.90;6.30;;;;;;;16.42;62.48;100636.72;10373807;28;20042;-62
2022/05/10 05:10:12;;;;;;;6.40;5.80;;;;;;;16.48;62.18;100630.75;10377839;28;20054;-61
2022/05/10 05:15:13;;;;;;;6.75;6.05;;;;;;;16.52;62.82;100628.59;10378256;28;20057;-64
2022/05/10 05:20:22;;;;;;;7.60;6.93;;;;;;;16.56;63.16;100638.06;10376518;28;20042;-61
2022/05/10 05:25:23;;;;;;;6.97;6.47;;;;;;;16.56;61.28;100636.22;10376912;28;20060;-61
2022/05/10 05:30:24;;;;;;;7.78;6.75;;;;;;;16.46;61.33;100619.31;10376935;28;20099;-61
2022/05/10 05:35:26;;;;;;;8.07;7.28;;;;;;;16.53;61.62;100641.03;10375712;28;20132;-62
2022/05/10 05:40:28;;;;;;;7.53;6.65;;;;;;;16.51;61.69;100641.19;10374851;28;20046;-62
2022/05/10 05:45:29;;;;;;;8.25;7.55;;;;;;;16.45;60.78;100620.28;10376227;28;20125;-62
2022/05/10 05:50:31;;;;;;;8.70;7.85;;;;;;;16.65;61.63;100630.88;10363192;28;20536;-63
2022/05/10 05:55:32;;;;;;;9.35;7.82;;;;;;;16.76;60.83;100631.50;10376924;28;20049;-62
2022/05/10 06:00:34;;;;;;;8.65;7.75;;;;;;;16.82;60.03;100627.34;10375599;28;20573;-62
2022/05/10 06:05:35;;;;;;;9.23;8.13;;;;;;;16.96;61.03;100634.06;10375869;28;20061;-61
2022/05/10 06:10:37;;;;;;;8.73;7.90;;;;;;;17.02;60.19;100636.13;10375466;28;20121;-62
2022/05/10 06:15:39;;;;;;;8.43;6.55;;;;;;;17.20;59.41;100624.47;10374875;28;20116;-62
2022/05/10 06:20:41;;;;;;;7.78;7.07;;;;;;;17.27;60.04;100618.31;10374735;28;20141;-62
2022/05/10 06:25:42;;;;;;;8.50;7.50;;;;;;;17.40;58.72;100630.47;10374355;28;20771;-62
2022/05/10 06:30:44;;;;;;;10.93;7.80;;;;;;;17.56;58.98;100627.88;10378832;28;20087;-62
2022/05/10 06:35:45;;;;;;;9.73;7.95;;;;;;;17.83;58.71;100637.63;10384187;28;20101;-62
2022/05/10 06:40:47;;;;;;;9.20;8.30;;;;;;;17.96;56.85;100610.25;10387676;28;20119;-62
2022/05/10 06:45:49;;;;;;;8.23;7.43;;;;;;;17.99;57.26;100620.72;10387536;28;20797;-62
2022/05/10 06:50:51;;;;;;;10.38;7.80;;;;;;;18.22;56.75;100620.09;10381115;28;20049;-63
2022/05/10 06:55:52;;;;;;;9.82;8.95;;;;;;;18.29;55.94;100610.34;10377317;28;20045;-62
2022/05/10 07:00:54;;;;;;;9.25;7.90;;;;;;;18.46;56.58;100613.09;10371326;28;20132;-62
2022/05/10 07:05:55;;;;;;;10.32;8.13;;;;;;;18.55;56.67;100609.38;10373974;28;20048;-62
2022/05/10 07:10:57;;;;;;;9.85;8.07;;;;;;;18.61;55.89;100597.94;10371401;28;20870;-62
2022/05/10 07:15:58;;;;;;;10.10;9.05;;;;;;;18.79;54.77;100600.47;10374113;28;20257;-62
2022/05/10 07:21:00;;;;;;;9.80;7.75;;;;;;;18.90;54.82;100596.63;10372653;28;20049;-63
2022/05/10 07:26:01;;;;;;;12.43;7.85;;;;;;;19.08;54.62;100610.75;10371539;28;20049;-64
2022/05/10 07:31:02;;;;;;;10.65;8.63;;;;;;;19.06;54.84;100617.34;10371105;28;20595;-63
2022/05/10 07:41:24;;;;;;;9.95;8.75;;;;;;;19.12;54.72;100621.22;10371435;28;20069;-62
2022/05/10 07:46:26;;;;;;;8.55;7.82;;;;;;;19.33;54.30;100617.97;10386830;28;20049;-63
2022/05/10 07:51:28;;;;;;;9.98;7.88;;;;;;;19.44;53.28;100612.19;10367702;28;20076;-62
2022/05/10 07:56:29;;;;;;;9.68;8.48;;;;;;;19.40;53.28;100570.38;10372529;28;20116;-63
2022/05/10 08:01:31;;;;;;;9.40;7.05;;;;;;;19.81;52.83;100604.53;10373440;28;20045;-62
2022/05/10 08:06:32;;;;;;;10.32;7.50;;;;;;;19.86;51.62;100596.72;10362579;28;20040;-62
2022/05/10 08:11:34;;;;;;;9.60;8.60;;;;;;;20.18;51.17;100600.28;10369646;28;20696;-62
2022/05/10 08:16:37;;;;;;;11.20;7.63;;;;;;;20.58;50.22;100584.78;10371180;28;20132;-62
2022/05/10 08:21:39;;;;;;;10.30;8.18;;;;;;;20.71;49.11;100573.41;10368635;28;20136;-61
2022/05/10 08:26:41;;;;;;;15.05;8.32;;;;;;;21.25;48.62;100578.63;10370196;28;20063;-62
2022/05/10 08:31:42;;;;;;;8.20;6.80;;;;;;;21.48;46.42;100565.00;10369136;28;20055;-61
2022/05/10 08:36:46;;;;;;;11.35;6.93;;;;;;;21.74;45.88;100577.25;10370072;28;20080;-62
2022/05/10 08:41:53;;;;;;;7.20;5.93;;;;;;;22.13;45.89;100577.88;10367924;28;20076;-61
2022/05/10 08:46:58;;;;;;;10.52;6.40;;;;;;;22.52;44.48;100566.66;10368341;28;20046;-64
2022/05/10 08:52:00;;;;;;;7.30;6.47;;;;;;;22.86;44.58;100567.75;10372702;28;20052;-61
2022/05/10 08:57:23;;;;;;;7.55;6.82;;;;;;;22.97;43.04;100569.13;10379053;28;20072;-61
2022/05/10 09:02:40;;;;;;;10.13;6.20;;;;;;;23.12;44.05;100567.16;10369715;28;20049;-61
2022/05/10 09:08:04;;;;;;;6.32;4.97;;;;;;;23.37;42.38;100557.69;10385924;28;20049;-61
2022/05/10 09:13:10;;;;;;;8.10;6.22;;;;;;;23.23;42.88;100552.19;10370983;28;20041;-62
2022/05/10 09:18:23;;;;;;;5.55;5.05;;;;;;;23.28;43.27;100544.28;10369688;28;20042;-62
2022/05/10 09:23:45;;;;;;;5.25;4.78;;;;;;;23.34;43.25;100544.53;10370928;28;20640;-62
2022/05/10 09:28:55;;;;;;;5.45;4.95;;;;;;;23.37;42.85;100525.09;10378192;28;20049;-61
2022/05/10 09:39:34;;;;;;;7.28;4.90;;;;;;;24.50;41.52;100525.44;10377480;28;20033;-62
2022/05/10 09:44:35;;;;;;;6.00;4.32;;;;;;;24.88;39.67;100527.53;10375158;28;20041;-63
2022/05/10 09:49:39;;;;;;;4.50;4.10;;;;;;;25.06;39.19;100528.78;10377267;28;20140;-62
2022/05/10 09:54:43;;;;;;;5.45;4.95;;;;;;;25.34;38.33;100514.91;10376867;28;20111;-63
2022/05/10 09:59:47;;;;;;;5.40;4.90;;;;;;;25.48;38.61;100514.88;10377670;28;20044;-62
2022/05/10 10:04:49;;;;;;;5.18;3.97;;;;;;;25.81;38.83;100514.72;10375657;28;20060;-62
2022/05/10 10:09:56;;;;;;;5.30;4.80;;;;;;;26.12;37.93;100515.78;10376732;28;20179;-61
2022/05/10 10:15:34;;;;;;;6.47;4.33;;;;;;;26.60;36.33;100506.19;10377571;28;20045;-62
2022/05/10 10:20:49;;;;;;;6.13;4.95;;;;;;;26.63;35.36;100512.06;10377579;28;20045;-61
2022/05/10 10:25:55;;;;;;;6.03;5.18;;;;;;;27.09;36.32;100499.03;10376718;28;20045;-62
2022/05/10 10:31:16;;;;;;;5.82;4.85;;;;;;;27.26;33.63;100474.69;10378811;28;20515;-66
2022/05/10 10:36:46;;;;;;;5.03;4.63;;;;;;;27.76;33.35;100481.84;10382837;28;20051;-63
2022/05/10 10:42:02;;;;;;;5.60;4.25;;;;;;;27.87;34.30;100477.47;10377044;28;20121;-60
2022/05/10 10:47:25;;;;;;;5.25;4.78;;;;;;;28.04;33.19;100472.19;10374899;28;20510;-62
2022/05/10 10:52:29;;;;;;;4.80;4.40;;;;;;;28.07;34.42;100454.47;10374434;28;20603;-63
2022/05/10 10:57:36;;;;;;;4.82;4.43;;;;;;;28.30;32.69;100461.88;10374082;28;20081;-62
2022/05/10 11:02:57;;;;;;;5.68;5.13;;;;;;;28.50;33.37;100443.22;10372896;28;20049;-64
2022/05/10 11:08:34;;;;;;;4.80;4.40;;;;;;;28.25;33.55;100453.56;10374013;28;20053;-62
2022/05/10 11:13:48;;;;;;;6.53;4.82;;;;;;;28.09;33.95;100439.50;10373179;28;20043;-61
2022/05/10 11:18:56;;;;;;;5.68;4.50;;;;;;;28.13;33.48;100431.66;10378942;28;20116;-62
2022/05/10 11:24:25;;;;;;;4.82;4.30;;;;;;;28.29;34.80;100430.13;10377144;28;20053;-61
2022/05/10 11:30:02;;;;;;;4.88;4.38;;;;;;;28.18;33.85;100418.94;10372495;28;20152;-61
2022/05/10 11:35:06;;;;;;;5.95;4.60;;;;;;;28.48;33.44;100428.94;10372826;28;20041;-62
2022/05/10 11:40:23;;;;;;;4.85;4.45;;;;;;;28.73;32.67;100408.72;10384989;28;20133;-62
2022/05/10 11:46:00;;;;;;;4.63;3.92;;;;;;;28.65;32.73;100403.63;10371981;28;20627;-61
2022/05/10 11:51:39;;;;;;;7.18;4.78;;;;;;;28.66;33.15;100386.09;10371793;28;20045;-61
2022/05/10 11:56:41;;;;;;;6.60;4.72;;;;;;;28.48;31.83;100378.81;10372681;28;20041;-61
2022/05/10 12:01:48;;;;;;;6.22;4.70;;;;;;;28.53;31.73;100382.50;10370959;28;20049;-62
2022/05/10 12:06:49;;;;;;;5.80;4.75;;;;;;;28.67;31.96;100376.81;10370119;28;20520;-62
2022/05/10 12:11:54;;;;;;;3.77;3.47;;;;;;;28.91;30.94;100366.63;10372081;28;20055;-62
2022/05/10 12:22:45;;;;;;;6.63;3.78;;;;;;;29.62;29.30;100350.75;10369867;28;20059;-65
2022/05/10 12:27:58;;;;;;;6.63;3.03;;;;;;;29.29;28.39;100347.94;10370641;28;20129;-62
2022/05/10 12:33:36;;;;;;;7.25;3.10;;;;;;;29.51;29.28;100340.66;10385677;28;20045;-62
2022/05/10 12:38:48;;;;;;;3.95;3.13;;;;;;;29.29;27.76;100335.09;10370036;28;20038;-63
2022/05/10 12:44:23;;;;;;;3.60;2.85;;;;;;;28.86;28.15;100337.22;10368748;28;20037;-62
2022/05/10 12:50:03;;;;;;;3.70;3.13;;;;;;;28.57;29.14;100333.59;10366713;28;20334;-62
2022/05/10 12:55:09;;;;;;;3.17;2.88;;;;;;;28.57;29.33;100317.16;10366394;28;20049;-63
2022/05/10 13:00:14;;;;;;;3.45;3.15;;;;;;;28.47;28.41;100328.72;10372292;28;20049;-62
2022/05/10 13:05:20;;;;;;;3.38;3.08;;;;;;;28.27;29.93;100311.84;10382293;28;20053;-66
2022/05/10 13:10:23;;;;;;;3.38;2.65;;;;;;;28.27;29.75;100295.41;10377757;28;20875;-61
2022/05/10 13:15:24;;;;;;;6.28;3.97;;;;;;;28.54;30.31;100291.09;10377213;28;20049;-65
2022/05/10 13:20:28;;;;;;;4.13;2.80;;;;;;;28.92;29.59;100297.91;10378599;28;20695;-63
2022/05/10 13:25:36;;;;;;;3.60;3.33;;;;;;;28.90;29.35;100294.59;10376958;28;20041;-62
2022/05/10 13:30:41;;;;;;;5.47;3.50;;;;;;;28.75;29.47;100266.91;10375462;28;20041;-62
2022/05/10 13:35:49;;;;;;;3.53;3.22;;;;;;;29.27;29.04;100269.56;10378562;28;20136;-61
2022/05/10 13:40:57;;;;;;;5.20;3.95;;;;;;;29.23;28.98;100268.38;10376992;28;20096;-63
2022/05/10 13:46:03;;;;;;;4.43;3.65;;;;;;;28.88;29.98;100263.84;10381365;28;20056;-61
2022/05/10 13:51:09;;;;;;;4.20;3.65;;;;;;;28.46;30.67;100261.34;10377555;28;20077;-63
2022/05/10 13:56:13;;;;;;;4.50;4.05;;;;;;;28.37;31.04;100257.31;10374626;28;20049;-61
2022/05/10 14:01:31;;;;;;;4.18;3.75;;;;;;;27.96;31.96;100245.47;10375646;28;20061;-62
2022/05/10 14:06:36;;;;;;;4.47;4.07;;;;;;;27.83;32.23;100230.97;10375371;28;20056;-60
2022/05/10 14:11:40;;;;;;;5.00;4.43;;;;;;;27.67;32.32;100226.22;10375582;28;20052;-61
2022/05/10 14:16:44;;;;;;;6.57;5.15;;;;;;;27.54;31.76;100238.22;10375886;28;20692;-62
2022/05/10 14:21:47;;;;;;;5.03;4.40;;;;;;;27.32;32.75;100216.03;10380308;28;20053;-62
2022/05/10 14:27:02;;;;;;;3.88;3.58;;;;;;;27.42;32.15;100213.59;10386144;28;20061;-61
2022/05/10 14:32:08;;;;;;;5.28;4.68;;;;;;;27.38;33.25;100223.31;10375003;28;20128;-61
2022/05/10 14:37:10;;;;;;;6.65;4.88;;;;;;;27.22;33.10;100197.50;10377253;28;20041;-61
2022/05/10 14:42:52;;;;;;;6.57;4.57;;;;;;;26.87;33.72;100209.16;10374373;28;20428;-61
2022/05/10 14:47:54;;;;;;;5.37;4.70;;;;;;;26.72;34.83;100206.88;10346551;28;20103;-61
2022/05/10 14:53:10;;;;;;;5.27;4.77;;;;;;;26.49;34.98;100193.91;10374341;28;20045;-59
2022/05/10 14:58:26;;;;;;;5.85;5.35;;;;;;;26.50;35.10;100187.41;10373517;28;20152;-62
2022/05/10 15:03:28;;;;;;;6.47;4.78;;;;;;;26.54;35.30;100183.16;10371229;28;20049;-61
2022/05/10 15:08:29;;;;;;;5.03;3.72;;;;;;;26.31;35.06;100159.31;10367136;28;20296;-61
2022/05/10 15:13:31;;;;;;;5.13;4.43;;;;;;;26.36;35.66;100172.25;10387522;28;20144;-61
2022/05/10 15:23:59;;;;;;;5.15;4.70;;;;;;;26.36;35.70;100161.34;10369887;28;20057;-61
2022/05/10 15:29:00;;;;;;;4.75;4.28;;;;;;;26.33;35.96;100153.63;10372692;28;20144;-63
2022/05/10 15:34:42;;;;;;;4.85;4.10;;;;;;;26.29;35.63;100150.53;10373738;28;20354;-61
2022/05/10 15:39:23;;;;;;;9.15;4.30;;;;;;;26.20;35.79;100127.38;10371362;28;20692;-61
2022/05/10 15:44:25;;;;;;;5.60;4.60;;;;;;;26.29;35.76;100145.06;10372324;28;20060;-62
2022/05/10 15:49:26;;;;;;;4.15;3.70;;;;;;;26.32;36.15;100133.69;10367718;28;20446;-62
2022/05/10 15:54:27;;;;;;;6.15;3.92;;;;;;;26.17;35.14;100130.56;10371420;28;20420;-59
2022/05/10 15:59:29;;;;;;;4.90;3.55;;;;;;;25.90;34.29;100123.47;10372055;28;20056;-62
2022/05/10 16:04:31;;;;;;;4.35;3.40;;;;;;;25.81;32.96;100121.31;10368757;28;20090;-61
2022/05/10 16:09:32;;;;;;;3.88;3.10;;;;;;;25.80;31.29;100127.81;10371176;28;20045;-63
2022/05/10 16:14:34;;;;;;;3.83;2.70;;;;;;;25.72;30.68;100123.50;10379095;28;20156;-62
2022/05/10 16:19:35;;;;;;;3.08;2.50;;;;;;;25.70;31.57;100118.28;10368462;28;20775;-62
2022/05/10 16:24:36;;;;;;;3.45;2.95;;;;;;;25.67;31.53;100115.16;10370498;28;20511;-62
2022/05/10 16:29:44;;;;;;;4.55;3.05;;;;;;;25.58;30.20;100114.59;10371127;28;20053;-62
2022/05/10 16:34:52;;;;;;;3.33;2.25;;;;;;;25.54;29.96;100110.69;10369697;28;20052;-61
2022/05/10 16:39:53;;;;;;;4.32;2.63;;;;;;;25.37;29.24;100105.81;10367758;28;20079;-63
2022/05/10 16:44:55;;;;;;;5.30;2.63;;;;;;;25.38;29.51;100091.13;10368376;28;20557;-59
2022/05/10 16:49:56;;;;;;;2.85;2.35;;;;;;;25.34;29.76;100095.38;10369768;28;20056;-63
2022/05/10 16:54:57;;;;;;;3.08;2.05;;;;;;;25.24;29.47;100097.75;10370415;28;20053;-62
2022/05/10 17:00:06;;;;;;;2.78;2.58;;;;;;;25.12;30.32;100102.28;10370182;28;20057;-63
2022/05/10 17:05:10;;;;;;;4.70;2.97;;;;;;;24.91;30.73;100087.97;10366987;28;20049;-62
2022/05/10 17:10:15;;;;;;;4.35;3.03;;;;;;;24.98;30.74;100101.53;10368673;28;20136;-63
2022/05/10 17:15:17;;;;;;;4.53;2.97;;;;;;;24.92;31.35;100108.72;10371731;28;20141;-62
2022/05/10 17:20:19;;;;;;;4.73;2.90;;;;;;;24.86;31.57;100106.84;10369557;28;20606;-63
2022/05/10 17:25:27;;;;;;;6.28;2.83;;;;;;;24.86;31.54;100104.13;10369614;28;20056;-61
2022/05/10 17:30:28;;;;;;;3.53;2.95;;;;;;;24.77;31.67;100094.56;10371079;28;20076;-60
2022/05/10 17:35:30;;;;;;;4.35;3.95;;;;;;;24.80;31.98;100099.56;10370642;28;20051;-62
2022/05/10 17:40:33;;;;;;;3.55;3.25;;;;;;;24.62;32.36;100079.41;10369539;28;20051;-62
2022/05/10 17:45:36;;;;;;;3.45;2.92;;;;;;;24.72;32.90;100102.59;10371948;28;20232;-65
2022/05/10 17:50:38;;;;;;;4.10;2.97;;;;;;;24.66;33.02;100113.28;10377155;28;20541;-63
2022/05/10 17:55:39;;;;;;;3.53;3.03;;;;;;;24.58;33.34;100102.66;10374751;28;20061;-63
2022/05/10 18:00:43;;;;;;;5.82;3.55;;;;;;;24.46;33.90;100098.97;10376579;28;20164;-62
2022/05/10 18:05:47;;;;;;;3.95;3.55;;;;;;;24.40;33.86;100092.50;10378011;28;20141;-62
2022/05/10 18:10:51;;;;;;;3.90;3.28;;;;;;;24.41;34.03;100101.47;10378926;28;20061;-62
2022/05/10 18:15:52;;;;;;;8.23;3.35;;;;;;;24.38;34.45;100101.91;10384167;28;20041;-63
2022/05/10 18:20:54;;;;;;;4.40;2.75;;;;;;;24.28;34.30;100100.50;10382702;28;20077;-62
2022/05/10 18:25:59;;;;;;;5.00;3.20;;;;;;;24.08;34.95;100080.75;10376347;28;20073;-63
2022/05/10 18:31:02;;;;;;;5.88;3.40;;;;;;;24.10;34.97;100101.22;10373605;28;20041;-62
2022/05/10 18:36:05;;;;;;;3.03;2.78;;;;;;;23.97;35.38;100090.41;10371373;28;20053;-62
2022/05/10 18:41:11;;;;;;;5.63;3.27;;;;;;;23.95;35.66;100090.63;10379162;28;20046;-62
2022/05/10 18:46:14;;;;;;;3.60;3.30;;;;;;;23.89;35.88;100099.66;10373346;28;20275;-63
2022/05/10 18:51:16;;;;;;;5.57;4.00;;;;;;;23.77;36.35;100107.59;10372793;28;20053;-61
2022/05/10 18:56:17;;;;;;;3.80;3.35;;;;;;;23.68;36.64;100091.75;10370796;28;20053;-64
2022/05/10 19:01:19;;;;;;;5.28;3.53;;;;;;;23.53;36.57;100090.13;10372914;28;20068;-62
2022/05/10 19:06:21;;;;;;;4.88;3.30;;;;;;;23.49;37.29;100094.28;10370670;28;20515;-62
2022/05/10 19:11:24;;;;;;;7.13;4.28;;;;;;;23.40;37.83;100095.56;10372529;28;20041;-62
2022/05/10 19:16:25;;;;;;;5.30;4.00;;;;;;;23.32;37.85;100112.09;10371192;28;20107;-62
2022/05/10 19:21:27;;;;;;;4.93;4.43;;;;;;;23.24;38.14;100107.69;10373439;28;20053;-61
2022/05/10 19:26:28;;;;;;;4.85;4.38;;;;;;;23.17;38.83;100112.31;10372163;28;20053;-62
2022/05/10 19:31:30;;;;;;;4.72;4.25;;;;;;;23.08;39.09;100119.81;10375479;28;20059;-63
2022/05/10 19:36:31;;;;;;;4.00;3.70;;;;;;;22.99;39.49;100121.88;10379390;28;20041;-63
2022/05/10 19:41:36;;;;;;;4.90;4.50;;;;;;;22.93;39.80;100128.97;10373893;28;20049;-63
2022/05/10 19:46:38;;;;;;;4.50;4.10;;;;;;;22.85;40.24;100115.63;10371235;28;20726;-65
2022/05/10 19:51:39;;;;;;;3.90;3.60;;;;;;;22.69;40.31;100105.19;10371587;28;20079;-62
2022/05/10 19:56:41;;;;;;;4.80;4.30;;;;;;;22.73;40.71;100118.13;10371510;28;20064;-63
2022/05/10 20:07:03;;;;;;;6.40;4.32;;;;;;;22.63;41.04;100123.09;10370132;28;20111;-62
2022/05/10 20:12:04;;;;;;;5.57;5.07;;;;;;;22.44;41.09;100100.31;10371926;28;20684;-63
2022/05/10 20:17:06;;;;;;;6.80;4.10;;;;;;;22.53;42.07;100122.66;10371262;28;20080;-62
2022/05/10 20:22:08;;;;;;;4.55;3.83;;;;;;;22.48;41.57;100115.16;10370459;28;20126;-64
2022/05/10 20:27:10;;;;;;;5.07;3.97;;;;;;;22.43;42.13;100123.06;10369260;28;20068;-63
2022/05/10 20:32:11;;;;;;;4.25;3.60;;;;;;;22.31;42.27;100108.38;10369959;28;20692;-63
2022/05/10 20:37:13;;;;;;;4.47;4.07;;;;;;;22.20;42.65;100105.25;10368021;28;20049;-63
2022/05/10 20:42:14;;;;;;;5.88;3.85;;;;;;;22.30;42.92;100117.56;10369430;28;20081;-62
2022/05/10 20:47:20;;;;;;;4.38;3.97;;;;;;;22.24;42.82;100113.78;10369938;28;20807;-63
2022/05/10 20:52:22;;;;;;;4.85;4.07;;;;;;;22.30;42.49;100128.41;10369710;28;20128;-63
2022/05/10 20:57:23;;;;;;;4.00;3.60;;;;;;;22.22;43.08;100122.13;10369240;28;20068;-63
2022/05/10 21:02:26;;;;;;;4.75;4.20;;;;;;;22.23;43.36;100121.09;10386103;28;20053;-59
2022/05/10 21:12:48;;;;;;;4.75;3.95;;;;;;;22.13;43.18;100107.09;10367915;28;20024;-62
2022/05/10 21:17:50;;;;;;;6.70;4.05;;;;;;;22.20;44.17;100121.50;10368345;28;20050;-62
2022/05/10 21:22:51;;;;;;;4.22;3.83;;;;;;;22.15;44.57;100123.97;10373984;28;20136;-63
2022/05/10 21:27:53;;;;;;;4.88;4.45;;;;;;;22.05;45.38;100123.53;10376886;28;20042;-64
2022/05/10 21:32:58;;;;;;;4.50;4.10;;;;;;;21.93;45.20;100112.41;10377455;28;20136;-62
2022/05/10 21:38:00;;;;;;;4.13;3.72;;;;;;;21.82;45.32;100099.47;10378511;28;20123;-61
2022/05/10 21:43:03;;;;;;;4.65;4.13;;;;;;;21.88;44.99;100121.16;10375773;28;20052;-63
2022/05/10 21:48:05;;;;;;;4.78;4.40;;;;;;;21.83;45.76;100114.69;10376035;28;20072;-62
2022/05/10 21:53:06;;;;;;;5.10;4.65;;;;;;;21.76;45.61;100105.69;10377631;28;20144;-62
2022/05/10 21:58:08;;;;;;;5.07;4.32;;;;;;;21.68;45.54;100103.97;10380350;28;20120;-62
2022/05/10 22:03:12;;;;;;;5.43;4.22;;;;;;;21.54;45.72;100093.06;10381588;28;20136;-63
2022/05/10 22:08:14;;;;;;;5.32;4.30;;;;;;;21.53;46.40;100098.69;10386993;28;20057;-63
2022/05/10 22:13:16;;;;;;;6.57;5.35;;;;;;;21.33;47.40;100088.53;10379161;28;20045;-63
2022/05/10 22:18:17;;;;;;;5.03;4.10;;;;;;;21.21;47.03;100079.25;10374116;28;20055;-62
2022/05/10 22:23:19;;;;;;;5.65;4.47;;;;;;;21.21;47.22;100090.09;10373094;28;20548;-63
2022/05/10 22:28:20;;;;;;;5.65;5.15;;;;;;;21.09;47.01;100084.41;10372793;28;20800;-63
2022/05/10 22:33:22;;;;;;;4.88;4.07;;;;;;;21.02;47.23;100080.81;10374602;28;20041;-62
2022/05/10 22:38:24;;;;;;;5.20;4.50;;;;;;;20.81;47.15;100074.38;10373093;28;20751;-62
2022/05/10 22:43:25;;;;;;;6.30;5.38;;;;;;;20.85;48.71;100096.47;10372313;28;20110;-62
2022/05/10 22:48:27;;;;;;;4.80;4.40;;;;;;;20.71;48.12;100086.56;10375572;28;20128;-64
2022/05/10 22:53:28;;;;;;;4.82;4.32;;;;;;;20.59;48.43;100076.22;10372868;28;20132;-62
2022/05/10 22:58:29;;;;;;;5.57;4.57;;;;;;;20.51;48.58;100073.66;10373268;28;20124;-62
2022/05/10 23:03:31;;;;;;;5.38;4.88;;;;;;;20.46;49.52;100079.66;10373219;28;20139;-67
2022/05/10 23:08:34;;;;;;;4.80;4.40;;;;;;;20.39;51.31;100078.75;10374285;28;20053;-63
2022/05/10 23:13:36;;;;;;;5.45;4.95;;;;;;;20.30;49.53;100074.50;10373447;28;20137;-62
2022/05/10 23:18:37;;;;;;;5.45;4.47;;;;;;;20.35;50.04;100072.03;10370374;28;20053;-64
2022/05/10 23:23:39;;;;;;;5.97;4.68;;;;;;;20.39;50.93;100067.94;10368998;28;20063;-62
2022/05/10 23:28:40;;;;;;;5.05;4.65;;;;;;;20.29;50.46;100070.13;10377959;28;20539;-63
2022/05/10 23:33:42;;;;;;;5.95;5.32;;;;;;;20.25;51.41;100071.50;10375009;28;20419;-62
2022/05/10 23:38:43;;;;;;;5.30;4.85;;;;;;;20.21;50.81;100076.47;10371370;28;20049;-63
2022/05/10 23:49:07;;;;;;;5.35;4.85;;;;;;;20.13;51.40;100074.75;10370124;28;20056;-63
2022/05/10 23:54:09;;;;;;;5.60;5.15;;;;;;;20.12;51.68;100067.66;10369623;28;20057;-63
2022/05/10 23:59:12;;;;;;;6.07;5.68;;;;;;;20.02;51.76;100050.91;10370998;28;20183;-62
